DataTemp.
Ø
Temp.
Max
Temp.
Min
UmiditàPressionePioggiaVento
Ø
Vento
dir. Ø
Vento
Max
Rad. solare
Ø
Rad. solare
Max
Indice UV
Max
20.01.2022 00:00-2.7°C-2.6°C-2.7°C85.1%1024.7hPa0.0mm1.4km/hSW3.2km/h0.0W/m²0W/m²0uvi
20.01.2022 00:05-2.6°C-2.6°C-2.7°C85.6%1024.7hPa0.0mm1.4km/hW3.2km/h0.0W/m²0W/m²0uvi
20.01.2022 00:10-2.7°C-2.7°C-2.8°C85.0%1024.6hPa0.0mm1.4km/hSW3.2km/h0.0W/m²0W/m²0uvi
20.01.2022 00:15-2.8°C-2.8°C-2.9°C85.3%1024.6hPa0.0mm1.2km/hSW1.4km/h0.0W/m²0W/m²0uvi
20.01.2022 00:20-2.9°C-2.9°C-2.9°C85.8%1024.6hPa0.0mm0.0km/hSW4.7km/h0.0W/m²0W/m²0uvi
20.01.2022 00:25-2.9°C-2.8°C-2.9°C86.5%1024.5hPa0.0mm0.9km/hSW4.7km/h0.0W/m²0W/m²0uvi
20.01.2022 00:30-2.8°C-2.8°C-2.8°C86.5%1024.5hPa0.0mm1.4km/hWSW3.2km/h0.0W/m²0W/m²0uvi
20.01.2022 00:35-2.8°C-2.8°C-2.9°C86.0%1024.5hPa0.0mm1.4km/hSW3.2km/h0.0W/m²0W/m²0uvi
20.01.2022 00:40-2.9°C-2.9°C-2.9°C86.2%1024.4hPa0.0mm1.4km/hSW3.2km/h0.0W/m²0W/m²0uvi
20.01.2022 00:45-2.9°C-2.9°C-2.9°C87.0%1024.3hPa0.0mm1.2km/hSW3.2km/h0.0W/m²0W/m²0uvi
20.01.2022 00:50-2.9°C-2.8°C-2.9°C87.0%1024.2hPa0.0mm0.2km/hSW4.7km/h0.0W/m²0W/m²0uvi
20.01.2022 00:55-2.8°C-2.7°C-2.8°C87.0%1024.2hPa0.0mm1.4km/hW4.7km/h0.0W/m²0W/m²0uvi
20.01.2022 01:00-2.7°C-2.7°C-2.7°C87.0%1024.1hPa0.0mm2.2km/hW3.2km/h0.0W/m²0W/m²0uvi
20.01.2022 01:05-2.7°C-2.7°C-2.8°C86.0%1024.0hPa0.0mm1.4km/hW4.7km/h0.0W/m²0W/m²0uvi
20.01.2022 01:10-2.8°C-2.7°C-2.9°C86.0%1024.0hPa0.0mm1.4km/hW3.2km/h0.0W/m²0W/m²0uvi
20.01.2022 01:15-3.0°C-2.9°C-3.1°C86.0%1024.0hPa0.0mm1.4km/hSW4.7km/h0.0W/m²0W/m²0uvi
20.01.2022 01:20-3.2°C-3.1°C-3.3°C86.0%1023.9hPa0.0mm1.4km/hSW3.2km/h0.0W/m²0W/m²0uvi
20.01.2022 01:25-3.4°C-3.3°C-3.4°C86.5%1023.9hPa0.0mm1.4km/hSSW1.4km/h0.0W/m²0W/m²0uvi
20.01.2022 01:30-3.4°C-3.3°C-3.4°C87.5%1024.0hPa0.0mm1.4km/hSSW4.7km/h0.0W/m²0W/m²0uvi
20.01.2022 01:35-3.2°C-3.2°C-3.3°C88.1%1024.0hPa0.0mm1.4km/hSSW3.2km/h0.0W/m²0W/m²0uvi
20.01.2022 01:40-3.1°C-3.0°C-3.2°C89.0%1023.9hPa0.0mm1.4km/hWSW3.2km/h0.0W/m²0W/m²0uvi
20.01.2022 01:45-3.0°C-2.9°C-3.0°C87.9%1023.9hPa0.0mm1.4km/hWSW1.4km/h0.0W/m²0W/m²0uvi
20.01.2022 01:50-3.1°C-3.1°C-3.2°C87.0%1023.8hPa0.0mm1.4km/hWSW3.2km/h0.0W/m²0W/m²0uvi
20.01.2022 01:55-3.2°C-3.1°C-3.2°C87.2%1023.8hPa0.0mm1.4km/hSW3.2km/h0.0W/m²0W/m²0uvi
20.01.2022 02:00-3.2°C-3.1°C-3.2°C88.0%1023.8hPa0.0mm1.4km/hSW3.2km/h0.0W/m²0W/m²0uvi
20.01.2022 02:05-3.1°C-3.0°C-3.2°C88.4%1023.7hPa0.0mm1.4km/hWSW3.2km/h0.0W/m²0W/m²0uvi
20.01.2022 02:10-3.1°C-3.0°C-3.1°C87.4%1023.7hPa0.0mm1.4km/hW3.2km/h0.0W/m²0W/m²0uvi
20.01.2022 02:15-3.2°C-3.1°C-3.2°C87.5%1023.7hPa0.0mm1.4km/hW4.7km/h0.0W/m²0W/m²0uvi
20.01.2022 02:20-3.2°C-3.1°C-3.3°C87.5%1023.6hPa0.0mm1.4km/hWSW3.2km/h0.0W/m²0W/m²0uvi
20.01.2022 02:25-3.3°C-3.3°C-3.4°C87.2%1023.6hPa0.0mm1.4km/hSSW4.7km/h0.0W/m²0W/m²0uvi
20.01.2022 02:30-3.4°C-3.3°C-3.4°C88.0%1023.5hPa0.0mm2.9km/hSSW3.2km/h0.0W/m²0W/m²0uvi
20.01.2022 02:35-3.4°C-3.4°C-3.4°C88.3%1023.5hPa0.0mm1.4km/hSW3.2km/h0.0W/m²0W/m²0uvi
20.01.2022 02:40-3.3°C-3.3°C-3.4°C89.0%1023.5hPa0.0mm0.7km/hW3.2km/h0.0W/m²0W/m²0uvi
20.01.2022 02:45-3.2°C-3.2°C-3.3°C89.1%1023.4hPa0.0mm1.1km/hW3.2km/h0.0W/m²0W/m²0uvi
20.01.2022 02:50-3.1°C-3.1°C-3.2°C88.9%1023.4hPa0.0mm1.4km/hSSW3.2km/h0.0W/m²0W/m²0uvi
20.01.2022 02:55-3.4°C-3.3°C-3.4°C87.2%1023.3hPa0.0mm1.4km/hSSW3.2km/h0.0W/m²0W/m²0uvi
20.01.2022 03:00-3.5°C-3.4°C-3.6°C88.0%1023.2hPa0.0mm1.4km/hSSW3.2km/h0.0W/m²0W/m²0uvi
20.01.2022 03:05-3.7°C-3.6°C-3.7°C88.0%1023.2hPa0.0mm1.4km/hSSW1.4km/h0.0W/m²0W/m²0uvi
20.01.2022 03:10-3.7°C-3.7°C-3.7°C88.0%1023.3hPa0.0mm0.5km/hSW3.2km/h0.0W/m²0W/m²0uvi
20.01.2022 03:15-3.7°C-3.7°C-3.8°C88.3%1023.2hPa0.0mm0.9km/hSW4.7km/h0.0W/m²0W/m²0uvi
20.01.2022 03:20-3.7°C-3.6°C-3.7°C89.5%1023.1hPa0.0mm1.7km/hSSW6.5km/h0.0W/m²0W/m²0uvi
20.01.2022 03:25-3.3°C-3.2°C-3.5°C90.3%1023.1hPa0.0mm3.2km/hSSW7.9km/h0.0W/m²0W/m²0uvi
20.01.2022 03:30-3.1°C-3.1°C-3.2°C90.0%1023.0hPa0.0mm3.2km/hSW3.2km/h0.0W/m²0W/m²0uvi
20.01.2022 03:35-3.0°C-2.9°C-3.1°C90.0%1022.9hPa0.0mm1.6km/hSW3.2km/h0.0W/m²0W/m²0uvi
20.01.2022 03:40-2.8°C-2.8°C-2.8°C89.8%1022.8hPa0.0mm0.0km/hSW1.4km/h0.0W/m²0W/m²0uvi
20.01.2022 03:45-2.8°C-2.8°C-2.8°C89.0%1022.8hPa0.0mm0.2km/hSW3.2km/h0.0W/m²0W/m²0uvi
20.01.2022 03:50-2.8°C-2.8°C-2.8°C89.0%1022.8hPa0.0mm1.4km/hSW1.4km/h0.0W/m²0W/m²0uvi
20.01.2022 03:55-2.8°C-2.8°C-2.8°C89.0%1022.6hPa0.0mm0.3km/hSW0.0km/h0.0W/m²0W/m²0uvi
20.01.2022 04:00-2.8°C-2.7°C-2.8°C89.0%1022.5hPa0.0mm0.0km/hW3.2km/h0.0W/m²0W/m²0uvi
20.01.2022 04:05-2.7°C-2.7°C-2.7°C88.6%1022.5hPa0.0mm0.0km/hWSW1.4km/h0.0W/m²0W/m²0uvi
20.01.2022 04:10-2.7°C-2.7°C-2.8°C88.0%1022.4hPa0.0mm0.0km/hWSW1.4km/h0.0W/m²0W/m²0uvi
20.01.2022 04:15-2.8°C-2.8°C-2.9°C87.9%1022.4hPa0.0mm0.0km/hSW3.2km/h0.0W/m²0W/m²0uvi
20.01.2022 04:20-2.9°C-2.8°C-2.9°C88.0%1022.4hPa0.0mm1.1km/hSSW4.7km/h0.0W/m²0W/m²0uvi
20.01.2022 04:25-2.8°C-2.8°C-2.9°C88.2%1022.3hPa0.0mm1.4km/hSSW4.7km/h0.0W/m²0W/m²0uvi
20.01.2022 04:30-2.7°C-2.6°C-2.8°C89.0%1022.2hPa0.0mm1.4km/hW3.2km/h0.0W/m²0W/m²0uvi
20.01.2022 04:35-2.5°C-2.4°C-2.6°C88.7%1022.2hPa0.0mm1.4km/hW4.7km/h0.0W/m²0W/m²0uvi
20.01.2022 04:40-2.4°C-2.3°C-2.4°C88.0%1022.1hPa0.0mm2.4km/hW4.7km/h0.0W/m²0W/m²0uvi
20.01.2022 04:45-2.2°C-2.2°C-2.3°C88.0%1022.1hPa0.0mm2.2km/hW3.2km/h0.0W/m²0W/m²0uvi
20.01.2022 04:50-2.2°C-2.2°C-2.2°C87.5%1022.1hPa0.0mm1.4km/hSSW4.7km/h0.0W/m²0W/m²0uvi
20.01.2022 04:55-2.3°C-2.2°C-2.3°C87.0%1022.0hPa0.0mm1.8km/hW6.5km/h0.0W/m²0W/m²0uvi
20.01.2022 05:00-2.3°C-2.3°C-2.4°C87.0%1022.0hPa0.0mm3.2km/hW3.2km/h0.0W/m²0W/m²0uvi
20.01.2022 05:05-2.4°C-2.4°C-2.4°C87.0%1021.9hPa0.0mm1.8km/hW3.2km/h0.0W/m²0W/m²0uvi
20.01.2022 05:10-2.4°C-2.4°C-2.5°C87.0%1021.8hPa0.0mm1.4km/hSW3.2km/h0.0W/m²0W/m²0uvi
20.01.2022 05:15-2.5°C-2.5°C-2.6°C87.7%1021.7hPa0.0mm1.4km/hW3.2km/h0.0W/m²0W/m²0uvi
20.01.2022 05:20-2.5°C-2.5°C-2.6°C88.0%1021.8hPa0.0mm1.4km/hSSW3.2km/h0.0W/m²0W/m²0uvi
20.01.2022 05:25-2.5°C-2.5°C-2.6°C88.0%1021.8hPa0.0mm0.6km/hSW1.4km/h0.0W/m²0W/m²0uvi
20.01.2022 05:30-2.5°C-2.4°C-2.5°C88.0%1021.9hPa0.0mm0.0km/hSW3.2km/h0.0W/m²0W/m²0uvi
20.01.2022 05:35-2.5°C-2.4°C-2.6°C88.0%1021.8hPa0.0mm0.9km/hSW3.2km/h0.0W/m²0W/m²0uvi
20.01.2022 05:40-2.4°C-2.3°C-2.4°C88.5%1021.8hPa0.0mm1.4km/hW4.7km/h0.0W/m²0W/m²0uvi
20.01.2022 05:45-2.3°C-2.2°C-2.3°C88.0%1021.8hPa0.0mm1.4km/hW3.2km/h0.0W/m²0W/m²0uvi
20.01.2022 05:50-2.2°C-2.2°C-2.3°C87.6%1021.8hPa0.0mm0.8km/hW3.2km/h0.0W/m²0W/m²0uvi
20.01.2022 05:55-2.2°C-2.2°C-2.3°C87.5%1021.8hPa0.0mm1.2km/hSW3.2km/h0.0W/m²0W/m²0uvi
20.01.2022 06:00-2.3°C-2.3°C-2.3°C87.5%1021.9hPa0.0mm1.4km/hSW3.2km/h0.0W/m²0W/m²0uvi
20.01.2022 06:05-2.3°C-2.2°C-2.3°C88.0%1021.8hPa0.0mm1.2km/hSW1.4km/h0.0W/m²0W/m²0uvi
20.01.2022 06:10-2.2°C-2.2°C-2.3°C88.0%1021.8hPa0.0mm0.0km/hSW1.4km/h0.0W/m²0W/m²0uvi
20.01.2022 06:15-2.3°C-2.3°C-2.3°C88.0%1021.8hPa0.0mm0.0km/hSW1.4km/h0.0W/m²0W/m²0uvi
20.01.2022 06:20-2.4°C-2.3°C-2.4°C88.0%1021.8hPa0.0mm0.0km/hSW0.0km/h0.0W/m²0W/m²0uvi
20.01.2022 06:25-2.4°C-2.4°C-2.5°C88.0%1021.9hPa0.0mm0.3km/hSW4.7km/h0.0W/m²0W/m²0uvi
20.01.2022 06:30-2.6°C-2.6°C-2.6°C88.0%1021.9hPa0.0mm1.4km/hSSW3.2km/h0.0W/m²0W/m²0uvi
20.01.2022 06:35-2.6°C-2.6°C-2.6°C88.0%1021.8hPa0.0mm1.4km/hSSW1.4km/h0.0W/m²0W/m²0uvi
20.01.2022 06:40-2.6°C-2.6°C-2.6°C89.0%1021.8hPa0.0mm0.8km/hSSW1.4km/h0.0W/m²0W/m²0uvi
20.01.2022 06:45-2.6°C-2.5°C-2.6°C89.0%1021.8hPa0.0mm0.0km/hSSW1.4km/h0.0W/m²0W/m²0uvi
20.01.2022 06:50-2.5°C-2.4°C-2.6°C89.0%1021.9hPa0.0mm0.0km/hSSW3.2km/h0.0W/m²0W/m²0uvi
20.01.2022 06:55-2.5°C-2.5°C-2.6°C89.0%1022.0hPa0.0mm0.0km/hSSW1.4km/h0.0W/m²0W/m²0uvi
20.01.2022 07:00-2.6°C-2.5°C-2.6°C88.7%1022.0hPa0.0mm0.0km/hSSE6.5km/h0.0W/m²0W/m²0uvi
20.01.2022 07:05-2.6°C-2.6°C-2.7°C88.2%1022.1hPa0.0mm0.5km/hNNE4.7km/h0.0W/m²0W/m²0uvi
20.01.2022 07:10-2.7°C-2.7°C-2.7°C88.2%1022.1hPa0.0mm0.9km/hNNE1.4km/h0.0W/m²0W/m²0uvi
20.01.2022 07:15-2.7°C-2.7°C-2.7°C89.0%1022.2hPa0.0mm0.0km/hNNE0.0km/h0.0W/m²0W/m²0uvi
20.01.2022 07:20-2.7°C-2.7°C-2.7°C89.0%1022.2hPa0.0mm0.0km/hENE1.4km/h0.0W/m²0W/m²0uvi
20.01.2022 07:25-2.8°C-2.7°C-2.8°C89.0%1022.3hPa0.0mm0.4km/hNE3.2km/h0.0W/m²0W/m²0uvi
20.01.2022 07:30-2.8°C-2.8°C-2.8°C89.0%1022.3hPa0.0mm1.4km/hNE1.4km/h0.0W/m²0W/m²0uvi
20.01.2022 07:35-2.8°C-2.8°C-2.8°C89.0%1022.4hPa0.0mm0.3km/hNE1.4km/h0.0W/m²0W/m²0uvi
20.01.2022 07:40-2.8°C-2.8°C-2.8°C89.0%1022.3hPa0.0mm0.0km/hSSE3.2km/h0.0W/m²0W/m²0uvi
20.01.2022 07:45-2.8°C-2.8°C-2.8°C89.0%1022.4hPa0.0mm0.0km/hE3.2km/h3.3W/m²5W/m²0uvi
20.01.2022 07:50-2.8°C-2.8°C-2.8°C89.0%1022.3hPa0.0mm0.0km/hE1.4km/h6.7W/m²9W/m²0uvi
20.01.2022 07:55-2.8°C-2.8°C-2.9°C89.0%1022.3hPa0.0mm0.0km/hE1.4km/h11.5W/m²14W/m²0uvi
20.01.2022 08:00-2.8°C-2.8°C-2.8°C89.3%1022.3hPa0.0mm0.0km/hE1.4km/h15.7W/m²16W/m²0uvi
20.01.2022 08:05-2.7°C-2.7°C-2.8°C90.0%1022.3hPa0.0mm0.0km/hE0.0km/h17.3W/m²18W/m²0uvi
20.01.2022 08:10-2.7°C-2.6°C-2.7°C90.0%1022.3hPa0.0mm0.0km/hE1.4km/h18.3W/m²19W/m²0uvi
20.01.2022 08:15-2.6°C-2.6°C-2.7°C89.5%1022.4hPa0.0mm0.0km/hE3.2km/h21.7W/m²25W/m²0uvi
20.01.2022 08:20-2.6°C-2.6°C-2.7°C89.0%1022.3hPa0.0mm0.0km/hE1.4km/h25.6W/m²26W/m²0uvi
20.01.2022 08:25-2.6°C-2.6°C-2.7°C89.0%1022.3hPa0.0mm0.0km/hE0.0km/h26.3W/m²28W/m²0uvi
20.01.2022 08:30-2.6°C-2.6°C-2.6°C89.0%1022.3hPa0.0mm0.0km/hE0.0km/h29.3W/m²30W/m²0uvi
20.01.2022 08:35-2.6°C-2.6°C-2.6°C89.3%1022.4hPa0.0mm0.5km/hNE4.7km/h31.5W/m²33W/m²0uvi
20.01.2022 08:40-2.6°C-2.6°C-2.6°C89.0%1022.3hPa0.0mm1.4km/hNE1.4km/h35.3W/m²39W/m²0uvi
20.01.2022 08:45-2.6°C-2.6°C-2.6°C89.0%1022.5hPa0.0mm0.8km/hE3.2km/h39.3W/m²40W/m²0uvi
20.01.2022 08:50-2.6°C-2.6°C-2.6°C89.0%1022.5hPa0.0mm0.9km/hE3.2km/h41.0W/m²42W/m²0uvi
20.01.2022 08:55-2.6°C-2.6°C-2.6°C89.5%1022.4hPa0.0mm1.4km/hSSE1.4km/h36.3W/m²39W/m²0uvi
20.01.2022 09:00-2.5°C-2.4°C-2.6°C90.0%1022.4hPa0.0mm0.3km/hSSE1.4km/h32.8W/m²33W/m²0uvi
20.01.2022 09:05-2.4°C-2.4°C-2.5°C90.0%1022.5hPa0.0mm0.0km/hSSE1.4km/h33.0W/m²35W/m²0uvi
20.01.2022 09:10-2.4°C-2.3°C-2.4°C90.0%1022.5hPa0.0mm0.0km/hSSE1.4km/h38.2W/m²40W/m²0uvi
20.01.2022 09:15-2.3°C-2.3°C-2.3°C89.2%1022.6hPa0.0mm0.0km/hSSE1.4km/h46.2W/m²49W/m²0uvi
20.01.2022 09:20-2.3°C-2.3°C-2.3°C89.0%1022.7hPa0.0mm0.0km/hSSE0.0km/h52.0W/m²53W/m²0uvi
20.01.2022 09:25-2.2°C-2.2°C-2.3°C89.0%1022.7hPa0.0mm0.0km/hSSE3.2km/h53.5W/m²54W/m²0uvi
20.01.2022 09:30-2.2°C-2.1°C-2.2°C89.0%1022.7hPa0.0mm0.0km/hSSE3.2km/h58.7W/m²62W/m²0uvi
20.01.2022 09:35-2.1°C-2.0°C-2.1°C89.0%1022.7hPa0.0mm0.0km/hSSE0.0km/h62.3W/m²63W/m²0uvi
20.01.2022 09:40-1.9°C-1.9°C-2.0°C89.0%1022.7hPa0.0mm0.0km/hSSE1.4km/h56.4W/m²58W/m²0uvi
20.01.2022 09:45-1.8°C-1.8°C-1.9°C89.0%1022.6hPa0.0mm0.0km/hSSE1.4km/h54.8W/m²56W/m²0uvi
20.01.2022 09:50-1.7°C-1.7°C-1.8°C88.7%1022.5hPa0.0mm0.0km/hSSE1.4km/h51.3W/m²53W/m²0uvi
20.01.2022 09:55-1.7°C-1.6°C-1.7°C88.0%1022.6hPa0.0mm0.0km/hSSE3.2km/h49.0W/m²49W/m²0uvi
20.01.2022 10:00-1.6°C-1.6°C-1.6°C87.7%1022.5hPa0.0mm0.0km/hWSW3.2km/h51.1W/m²54W/m²0uvi
20.01.2022 10:05-1.6°C-1.6°C-1.6°C87.0%1022.6hPa0.0mm0.0km/hWSW1.4km/h51.3W/m²53W/m²0uvi
20.01.2022 10:10-1.6°C-1.5°C-1.6°C87.0%1022.4hPa0.0mm0.0km/hSW4.7km/h49.0W/m²51W/m²0uvi
20.01.2022 10:15-1.5°C-1.4°C-1.5°C87.0%1022.4hPa0.0mm0.3km/hWSW3.2km/h49.0W/m²51W/m²0uvi
20.01.2022 10:20-1.4°C-1.4°C-1.4°C87.0%1022.3hPa0.0mm1.4km/hW6.5km/h46.0W/m²46W/m²0uvi
20.01.2022 10:25-1.4°C-1.3°C-1.4°C87.0%1022.2hPa0.0mm2.8km/hWSW6.5km/h45.0W/m²46W/m²0uvi
20.01.2022 10:30-1.3°C-1.3°C-1.3°C87.0%1022.0hPa0.0mm2.1km/hWSW4.7km/h50.0W/m²53W/m²0uvi
20.01.2022 10:35-1.2°C-1.0°C-1.3°C87.0%1022.0hPa0.0mm1.4km/hW9.7km/h83.8W/m²155W/m²0uvi
20.01.2022 10:40-0.5°C-0.1°C-0.9°C85.7%1022.0hPa0.0mm1.4km/hW4.7km/h218.5W/m²278W/m²0uvi
20.01.2022 10:450.3°C0.6°C0.0°C83.2%1021.9hPa0.0mm2.2km/hW6.5km/h292.4W/m²295W/m²0uvi
20.01.2022 10:500.8°C0.9°C0.6°C81.4%1021.9hPa0.0mm3.2km/hW6.5km/h288.3W/m²290W/m²0uvi
20.01.2022 10:551.0°C1.2°C0.9°C79.7%1021.8hPa0.0mm4.0km/hW6.5km/h289.7W/m²292W/m²0uvi
20.01.2022 11:001.4°C1.5°C1.2°C78.5%1021.7hPa0.0mm3.9km/hW6.5km/h295.5W/m²297W/m²0uvi
20.01.2022 11:051.7°C1.7°C1.6°C78.0%1021.5hPa0.0mm3.2km/hW3.2km/h301.0W/m²302W/m²0uvi
20.01.2022 11:101.6°C1.7°C1.6°C77.0%1021.6hPa0.0mm3.2km/hW6.5km/h304.7W/m²308W/m²1uvi
20.01.2022 11:151.6°C1.8°C1.5°C77.0%1021.5hPa0.0mm3.2km/hW4.7km/h308.8W/m²309W/m²1uvi
20.01.2022 11:202.1°C2.2°C1.9°C75.8%1021.3hPa0.0mm2.1km/hW4.7km/h309.7W/m²311W/m²1uvi
20.01.2022 11:252.2°C2.3°C2.1°C74.9%1021.2hPa0.0mm1.4km/hW6.5km/h315.3W/m²318W/m²1uvi
20.01.2022 11:302.1°C2.2°C2.1°C74.3%1021.2hPa0.0mm1.4km/hW4.7km/h315.7W/m²316W/m²1uvi
20.01.2022 11:352.4°C2.8°C2.2°C73.8%1021.1hPa0.0mm1.4km/hWSW6.5km/h321.6W/m²322W/m²1uvi
20.01.2022 11:402.8°C2.9°C2.7°C71.9%1021.0hPa0.0mm1.4km/hW6.5km/h323.7W/m²327W/m²1uvi
20.01.2022 11:452.7°C2.8°C2.6°C72.1%1021.0hPa0.0mm1.4km/hW4.7km/h327.8W/m²336W/m²1uvi
20.01.2022 11:502.8°C2.8°C2.7°C71.6%1020.9hPa0.0mm2.1km/hSSW4.7km/h329.8W/m²332W/m²1uvi
20.01.2022 11:552.8°C3.1°C2.6°C71.4%1020.7hPa0.0mm1.9km/hSW4.7km/h335.0W/m²338W/m²1uvi
20.01.2022 12:003.5°C3.8°C3.2°C70.7%1020.5hPa0.0mm1.4km/hNNW3.2km/h338.8W/m²339W/m²1uvi
20.01.2022 12:053.9°C3.9°C3.8°C68.2%1020.4hPa0.0mm1.4km/hW3.2km/h338.3W/m²339W/m²1uvi
20.01.2022 12:103.9°C4.0°C3.9°C67.3%1020.4hPa0.0mm1.4km/hW3.2km/h342.2W/m²348W/m²1uvi
20.01.2022 12:154.1°C4.2°C3.9°C66.8%1020.3hPa0.0mm1.4km/hNNW3.2km/h337.8W/m²339W/m²1uvi
20.01.2022 12:204.1°C4.2°C4.1°C66.9%1020.3hPa0.0mm1.4km/hW4.7km/h339.5W/m²341W/m²1uvi
20.01.2022 12:254.0°C4.2°C3.9°C66.4%1020.1hPa0.0mm1.4km/hWSW4.7km/h338.6W/m²339W/m²1uvi
20.01.2022 12:304.0°C4.2°C3.9°C65.0%1019.9hPa0.0mm1.4km/hW3.2km/h341.0W/m²343W/m²1uvi
20.01.2022 12:354.5°C4.8°C4.2°C62.8%1019.9hPa0.0mm1.4km/hN1.4km/h338.8W/m²339W/m²1uvi
20.01.2022 12:404.8°C4.9°C4.8°C61.0%1019.7hPa0.0mm0.3km/hNNW3.2km/h338.5W/m²339W/m²1uvi
20.01.2022 12:454.8°C4.9°C4.7°C59.6%1019.6hPa0.0mm0.6km/hSSW4.7km/h339.8W/m²341W/m²1uvi
20.01.2022 12:504.7°C4.8°C4.7°C58.9%1019.5hPa0.0mm1.4km/hSSW3.2km/h339.5W/m²341W/m²1uvi
20.01.2022 12:554.9°C5.0°C4.8°C59.6%1019.5hPa0.0mm1.4km/hS4.7km/h336.8W/m²338W/m²1uvi
20.01.2022 13:005.0°C5.1°C4.9°C59.4%1019.3hPa0.0mm1.4km/hS4.7km/h335.0W/m²336W/m²1uvi
20.01.2022 13:055.3°C5.4°C5.2°C58.0%1019.1hPa0.0mm1.4km/hNNW3.2km/h329.3W/m²332W/m²1uvi
20.01.2022 13:105.3°C5.4°C5.3°C57.8%1019.0hPa0.0mm1.1km/hNNW3.2km/h327.0W/m²327W/m²1uvi
20.01.2022 13:155.2°C5.3°C5.2°C58.8%1019.1hPa0.0mm0.5km/hSE4.7km/h325.4W/m²327W/m²1uvi
20.01.2022 13:205.5°C5.8°C5.3°C57.3%1019.0hPa0.0mm1.4km/hNE1.4km/h321.2W/m²323W/m²1uvi
20.01.2022 13:255.6°C5.8°C5.4°C56.8%1018.8hPa0.0mm1.1km/hESE6.5km/h319.3W/m²322W/m²1uvi
20.01.2022 13:305.5°C5.7°C5.3°C56.1%1018.8hPa0.0mm1.4km/hSW3.2km/h315.6W/m²316W/m²1uvi
20.01.2022 13:355.7°C5.7°C5.7°C55.3%1018.9hPa0.0mm1.4km/hSW6.5km/h312.0W/m²315W/m²1uvi
20.01.2022 13:405.8°C5.9°C5.7°C54.8%1018.7hPa0.0mm1.4km/hSSW4.7km/h307.3W/m²309W/m²1uvi
20.01.2022 13:455.9°C6.0°C5.8°C54.2%1018.7hPa0.0mm1.4km/hSSW4.7km/h301.8W/m²304W/m²1uvi
20.01.2022 13:505.9°C5.9°C5.8°C54.0%1018.6hPa0.0mm2.2km/hSSW6.5km/h297.8W/m²301W/m²1uvi
20.01.2022 13:556.0°C6.2°C5.8°C54.1%1018.6hPa0.0mm3.2km/hSE7.9km/h291.7W/m²292W/m²1uvi
20.01.2022 14:006.3°C6.3°C6.2°C53.2%1018.6hPa0.0mm2.6km/hSE4.7km/h286.7W/m²290W/m²1uvi
20.01.2022 14:056.3°C6.4°C6.3°C52.6%1018.5hPa0.0mm1.4km/hNNE3.2km/h280.2W/m²283W/m²1uvi
20.01.2022 14:106.5°C6.6°C6.4°C52.1%1018.5hPa0.0mm1.4km/hSSE1.4km/h275.2W/m²276W/m²1uvi
20.01.2022 14:156.7°C6.8°C6.6°C52.4%1018.3hPa0.0mm1.1km/hSE3.2km/h269.2W/m²272W/m²0uvi
20.01.2022 14:206.7°C6.8°C6.6°C51.8%1018.1hPa0.0mm1.4km/hSSW3.2km/h262.5W/m²265W/m²0uvi
20.01.2022 14:256.8°C6.9°C6.7°C50.7%1018.1hPa0.0mm1.4km/hE4.7km/h255.0W/m²258W/m²0uvi
20.01.2022 14:306.7°C6.8°C6.6°C51.2%1017.8hPa0.0mm1.4km/hS7.9km/h247.0W/m²250W/m²0uvi
20.01.2022 14:356.9°C7.0°C6.9°C50.3%1017.8hPa0.0mm1.4km/hSE3.2km/h241.2W/m²244W/m²0uvi
20.01.2022 14:406.9°C6.9°C6.8°C50.4%1017.7hPa0.0mm1.4km/hS4.7km/h231.8W/m²234W/m²0uvi
20.01.2022 14:456.8°C6.9°C6.8°C51.0%1017.7hPa0.0mm1.4km/hSSW4.7km/h226.2W/m²229W/m²0uvi
20.01.2022 14:506.6°C6.7°C6.5°C52.6%1017.8hPa0.0mm2.8km/hNE3.2km/h217.0W/m²221W/m²0uvi
20.01.2022 14:556.5°C6.6°C6.4°C52.6%1017.6hPa0.0mm1.4km/hESE3.2km/h207.3W/m²211W/m²0uvi
20.01.2022 15:006.3°C6.4°C6.2°C52.9%1017.6hPa0.0mm1.4km/hESE4.7km/h197.7W/m²202W/m²0uvi
20.01.2022 15:055.7°C6.3°C5.2°C56.5%1017.5hPa0.0mm1.4km/hSE3.2km/h187.5W/m²193W/m²0uvi
20.01.2022 15:105.2°C5.2°C5.1°C58.0%1017.5hPa0.0mm1.4km/hNE3.2km/h90.8W/m²181W/m²0uvi
20.01.2022 15:154.9°C5.1°C4.7°C59.0%1017.5hPa0.0mm1.4km/hSE4.7km/h24.2W/m²25W/m²0uvi
20.01.2022 15:204.3°C4.6°C4.0°C60.7%1017.5hPa0.0mm1.4km/hSE6.5km/h23.0W/m²23W/m²0uvi
20.01.2022 15:253.8°C3.9°C3.6°C62.6%1017.6hPa0.0mm1.4km/hNNE3.2km/h22.2W/m²23W/m²0uvi
20.01.2022 15:303.4°C3.6°C3.3°C63.6%1017.8hPa0.0mm1.2km/hNNE3.2km/h21.0W/m²21W/m²0uvi
20.01.2022 15:353.2°C3.3°C3.1°C64.4%1017.7hPa0.0mm1.4km/hSSW4.7km/h20.7W/m²21W/m²0uvi
20.01.2022 15:403.0°C3.1°C2.9°C65.0%1017.6hPa0.0mm1.4km/hNE3.2km/h19.0W/m²19W/m²0uvi
20.01.2022 15:452.9°C2.9°C2.8°C66.0%1017.5hPa0.0mm0.6km/hE3.2km/h19.0W/m²19W/m²0uvi
20.01.2022 15:502.7°C2.8°C2.7°C66.2%1017.4hPa0.0mm0.6km/hENE1.4km/h18.5W/m²19W/m²0uvi
20.01.2022 15:552.6°C2.7°C2.6°C67.0%1017.4hPa0.0mm0.8km/hESE4.7km/h18.0W/m²18W/m²0uvi
20.01.2022 16:002.5°C2.6°C2.4°C67.8%1017.4hPa0.0mm1.4km/hNNE4.7km/h17.7W/m²18W/m²0uvi
20.01.2022 16:052.3°C2.4°C2.3°C68.0%1017.4hPa0.0mm1.4km/hESE3.2km/h16.0W/m²16W/m²0uvi
20.01.2022 16:102.2°C2.3°C2.2°C68.0%1017.4hPa0.0mm1.4km/hSSE3.2km/h15.3W/m²16W/m²0uvi
20.01.2022 16:152.2°C2.2°C2.2°C68.0%1017.4hPa0.0mm1.4km/hSE4.7km/h14.0W/m²14W/m²0uvi
20.01.2022 16:202.3°C2.3°C2.2°C67.9%1017.4hPa0.0mm1.4km/hS3.2km/h13.2W/m²14W/m²0uvi
20.01.2022 16:252.3°C2.3°C2.3°C67.5%1017.3hPa0.0mm1.4km/hNE4.7km/h12.0W/m²12W/m²0uvi
20.01.2022 16:302.3°C2.3°C2.3°C67.0%1017.3hPa0.0mm1.4km/hNE1.4km/h11.2W/m²12W/m²0uvi
20.01.2022 16:352.3°C2.4°C2.3°C67.0%1017.4hPa0.0mm1.1km/hENE3.2km/h10.6W/m²11W/m²0uvi
20.01.2022 16:402.3°C2.3°C2.3°C67.0%1017.5hPa0.0mm0.0km/hENE1.4km/h9.0W/m²9W/m²0uvi
20.01.2022 16:452.3°C2.3°C2.2°C67.0%1017.6hPa0.0mm0.0km/hENE1.4km/h7.7W/m²9W/m²0uvi
20.01.2022 16:502.1°C2.2°C2.0°C68.0%1017.7hPa0.0mm0.0km/hS4.7km/h6.3W/m²7W/m²0uvi
20.01.2022 16:551.9°C2.0°C1.8°C68.6%1017.6hPa0.0mm1.4km/hSSW4.7km/h4.3W/m²5W/m²0uvi
20.01.2022 17:001.7°C1.8°C1.7°C68.3%1017.8hPa0.0mm1.4km/hSSW3.2km/h0.0W/m²0W/m²0uvi
20.01.2022 17:051.7°C1.7°C1.7°C68.0%1017.8hPa0.0mm0.9km/hSSW1.4km/h0.0W/m²0W/m²0uvi
20.01.2022 17:101.6°C1.7°C1.6°C68.0%1017.9hPa0.0mm0.0km/hSSW3.2km/h0.0W/m²0W/m²0uvi
20.01.2022 17:151.5°C1.6°C1.4°C68.0%1017.9hPa0.0mm0.0km/hSSW3.2km/h0.0W/m²0W/m²0uvi
20.01.2022 17:201.3°C1.4°C1.3°C68.3%1017.9hPa0.0mm0.0km/hS3.2km/h0.0W/m²0W/m²0uvi
20.01.2022 17:251.2°C1.3°C1.2°C69.0%1018.0hPa0.0mm0.0km/hS1.4km/h0.0W/m²0W/m²0uvi
20.01.2022 17:301.1°C1.2°C0.9°C69.9%1018.2hPa0.0mm0.3km/hS4.7km/h0.0W/m²0W/m²0uvi
20.01.2022 17:350.8°C0.9°C0.7°C71.2%1018.3hPa0.0mm1.4km/hNNE4.7km/h0.0W/m²0W/m²0uvi
20.01.2022 17:400.7°C0.8°C0.7°C72.0%1018.5hPa0.0mm1.4km/hENE3.2km/h0.0W/m²0W/m²0uvi
20.01.2022 17:450.6°C0.7°C0.6°C71.9%1018.5hPa0.0mm1.4km/hSE4.7km/h0.0W/m²0W/m²0uvi
20.01.2022 17:500.6°C0.7°C0.6°C70.5%1018.5hPa0.0mm1.4km/hSSW4.7km/h0.0W/m²0W/m²0uvi
20.01.2022 17:550.6°C0.7°C0.6°C71.3%1018.7hPa0.0mm1.4km/hN4.7km/h0.0W/m²0W/m²0uvi
20.01.2022 18:000.5°C0.6°C0.4°C71.9%1018.7hPa0.0mm1.4km/hSSW4.7km/h0.0W/m²0W/m²0uvi
20.01.2022 18:050.3°C0.4°C0.3°C72.0%1018.8hPa0.0mm1.4km/hSSW1.4km/h0.0W/m²0W/m²0uvi
20.01.2022 18:100.3°C0.3°C0.3°C72.0%1018.9hPa0.0mm0.0km/hSSW3.2km/h0.0W/m²0W/m²0uvi
20.01.2022 18:150.2°C0.3°C0.2°C72.1%1018.9hPa0.0mm0.0km/hSSW6.5km/h0.0W/m²0W/m²0uvi
20.01.2022 18:200.1°C0.2°C0.1°C72.0%1018.9hPa0.0mm0.0km/hSSE3.2km/h0.0W/m²0W/m²0uvi
20.01.2022 18:250.1°C0.1°C0.1°C72.8%1018.9hPa0.0mm1.4km/hW3.2km/h0.0W/m²0W/m²0uvi
20.01.2022 18:300.1°C0.1°C0.0°C73.4%1018.9hPa0.0mm1.4km/hWSW1.4km/h0.0W/m²0W/m²0uvi
20.01.2022 18:350.0°C0.1°C-0.1°C74.0%1018.9hPa0.0mm0.3km/hWSW1.4km/h0.0W/m²0W/m²0uvi
20.01.2022 18:40-0.1°C0.0°C-0.2°C74.0%1019.0hPa0.0mm0.0km/hWSW3.2km/h0.0W/m²0W/m²0uvi
20.01.2022 18:45-0.3°C-0.2°C-0.3°C74.9%1019.0hPa0.0mm1.4km/hSW3.2km/h0.0W/m²0W/m²0uvi
20.01.2022 18:50-0.3°C-0.3°C-0.3°C75.4%1019.1hPa0.0mm1.4km/hSW3.2km/h0.0W/m²0W/m²0uvi
20.01.2022 18:55-0.4°C-0.3°C-0.5°C75.4%1019.1hPa0.0mm1.4km/hSW4.7km/h0.0W/m²0W/m²0uvi
20.01.2022 19:00-0.4°C-0.4°C-0.5°C76.0%1019.2hPa0.0mm1.4km/hWSW6.5km/h0.0W/m²0W/m²0uvi
20.01.2022 19:05-0.3°C-0.3°C-0.4°C76.0%1019.2hPa0.0mm1.4km/hSSW4.7km/h0.0W/m²0W/m²0uvi
20.01.2022 19:10-0.3°C-0.3°C-0.3°C75.3%1019.1hPa0.0mm1.7km/hS4.7km/h0.0W/m²0W/m²0uvi
20.01.2022 19:15-0.3°C-0.3°C-0.4°C75.7%1019.1hPa0.0mm1.4km/hW4.7km/h0.0W/m²0W/m²0uvi
20.01.2022 19:20-0.2°C-0.2°C-0.3°C76.0%1019.2hPa0.0mm1.4km/hW3.2km/h0.0W/m²0W/m²0uvi
20.01.2022 19:25-0.1°C-0.1°C-0.1°C76.0%1019.2hPa0.0mm1.4km/hW4.7km/h0.0W/m²0W/m²0uvi
20.01.2022 19:30-0.0°C0.0°C-0.1°C75.4%1019.2hPa0.0mm2.5km/hSSW4.7km/h0.0W/m²0W/m²0uvi
20.01.2022 19:350.0°C0.0°C0.0°C75.0%1019.3hPa0.0mm1.4km/hSW6.5km/h0.0W/m²0W/m²0uvi
20.01.2022 19:40-0.1°C0.0°C-0.1°C75.0%1019.2hPa0.0mm2.4km/hSSW9.7km/h0.0W/m²0W/m²0uvi
20.01.2022 19:45-0.1°C-0.1°C-0.2°C75.3%1019.2hPa0.0mm3.2km/hSSW6.5km/h0.0W/m²0W/m²0uvi
20.01.2022 19:50-0.2°C-0.1°C-0.2°C75.1%1019.2hPa0.0mm2.2km/hSSW4.7km/h0.0W/m²0W/m²0uvi
20.01.2022 19:55-0.2°C-0.2°C-0.2°C75.8%1019.3hPa0.0mm1.4km/hNNE1.4km/h0.0W/m²0W/m²0uvi
20.01.2022 20:00-0.2°C-0.2°C-0.2°C75.7%1019.4hPa0.0mm0.0km/hWNW4.7km/h0.0W/m²0W/m²0uvi
20.01.2022 20:05-0.2°C-0.1°C-0.2°C75.0%1019.3hPa0.0mm1.4km/hW3.2km/h0.0W/m²0W/m²0uvi
20.01.2022 20:10-0.2°C-0.1°C-0.2°C75.0%1019.5hPa0.0mm1.4km/hSE6.5km/h0.0W/m²0W/m²0uvi
20.01.2022 20:15-0.3°C-0.2°C-0.3°C75.0%1019.4hPa0.0mm1.4km/hWSW3.2km/h0.0W/m²0W/m²0uvi
20.01.2022 20:20-0.3°C-0.2°C-0.3°C75.0%1019.4hPa0.0mm1.4km/hWSW1.4km/h0.0W/m²0W/m²0uvi
20.01.2022 20:25-0.3°C-0.3°C-0.4°C75.0%1019.5hPa0.0mm0.3km/hWSW1.4km/h0.0W/m²0W/m²0uvi
20.01.2022 20:30-0.3°C-0.3°C-0.4°C75.5%1019.5hPa0.0mm0.7km/hW9.7km/h0.0W/m²0W/m²0uvi
20.01.2022 20:35-0.2°C-0.2°C-0.3°C75.0%1019.7hPa0.0mm1.4km/hSSE3.2km/h0.0W/m²0W/m²0uvi
20.01.2022 20:40-0.3°C-0.2°C-0.3°C75.0%1019.7hPa0.0mm1.4km/hSSW7.9km/h0.0W/m²0W/m²0uvi
20.01.2022 20:45-0.2°C-0.2°C-0.3°C75.0%1019.6hPa0.0mm1.8km/hW7.9km/h0.0W/m²0W/m²0uvi
20.01.2022 20:50-0.2°C-0.2°C-0.2°C75.0%1019.7hPa0.0mm3.2km/hSSW7.9km/h0.0W/m²0W/m²0uvi
20.01.2022 20:55-0.3°C-0.2°C-0.3°C75.0%1019.8hPa0.0mm3.2km/hSW6.5km/h0.0W/m²0W/m²0uvi
20.01.2022 21:00-0.3°C-0.3°C-0.4°C75.0%1019.8hPa0.0mm1.5km/hSW6.5km/h0.0W/m²0W/m²0uvi
20.01.2022 21:05-0.4°C-0.3°C-0.4°C75.0%1019.9hPa0.0mm1.4km/hW4.7km/h0.0W/m²0W/m²0uvi
20.01.2022 21:10-0.4°C-0.4°C-0.5°C75.0%1019.9hPa0.0mm3.2km/hSW6.5km/h0.0W/m²0W/m²0uvi
20.01.2022 21:15-0.6°C-0.5°C-0.7°C75.5%1019.9hPa0.0mm1.4km/hSW3.2km/h0.0W/m²0W/m²0uvi
20.01.2022 21:20-0.7°C-0.7°C-0.7°C76.0%1020.0hPa0.0mm0.8km/hNNW4.7km/h0.0W/m²0W/m²0uvi
20.01.2022 21:25-0.7°C-0.6°C-0.8°C75.9%1020.0hPa0.0mm1.7km/hW13.0km/h0.0W/m²0W/m²0uvi
20.01.2022 21:30-0.3°C-0.2°C-0.5°C74.2%1020.2hPa0.0mm3.5km/hW4.7km/h0.0W/m²0W/m²0uvi
20.01.2022 21:35-0.1°C-0.1°C-0.2°C73.7%1020.3hPa0.0mm3.0km/hNNE3.2km/h0.0W/m²0W/m²0uvi
20.01.2022 21:40-0.1°C-0.1°C-0.2°C72.8%1020.3hPa0.0mm1.4km/hNNE4.7km/h0.0W/m²0W/m²0uvi
20.01.2022 21:45-0.2°C-0.1°C-0.3°C72.7%1020.3hPa0.0mm1.4km/hW7.9km/h0.0W/m²0W/m²0uvi
20.01.2022 21:50-0.1°C0.0°C-0.1°C72.0%1020.4hPa0.0mm2.8km/hSW9.7km/h0.0W/m²0W/m²0uvi
20.01.2022 21:550.1°C0.1°C0.0°C72.0%1020.5hPa0.0mm3.2km/hWSW9.7km/h0.0W/m²0W/m²0uvi
20.01.2022 22:00-0.1°C0.1°C-0.2°C72.0%1020.5hPa0.0mm3.2km/hSW6.5km/h0.0W/m²0W/m²0uvi
20.01.2022 22:05-0.3°C-0.2°C-0.3°C72.7%1020.5hPa0.0mm3.2km/hSSW6.5km/h0.0W/m²0W/m²0uvi
20.01.2022 22:10-0.2°C-0.1°C-0.3°C72.0%1020.5hPa0.0mm3.2km/hSW7.9km/h0.0W/m²0W/m²0uvi
20.01.2022 22:15-0.1°C-0.1°C-0.1°C72.0%1020.4hPa0.0mm3.2km/hSSW11.2km/h0.0W/m²0W/m²0uvi
20.01.2022 22:200.1°C0.2°C-0.1°C70.7%1020.3hPa0.0mm4.3km/hW9.7km/h0.0W/m²0W/m²0uvi
20.01.2022 22:250.1°C0.2°C0.1°C70.4%1020.4hPa0.0mm4.7km/hSW6.5km/h0.0W/m²0W/m²0uvi
20.01.2022 22:30-0.1°C0.0°C-0.1°C71.0%1020.4hPa0.0mm3.6km/hW6.5km/h0.0W/m²0W/m²0uvi
20.01.2022 22:350.0°C0.1°C-0.1°C70.1%1020.3hPa0.0mm3.2km/hWNW6.5km/h0.0W/m²0W/m²0uvi
20.01.2022 22:40-0.1°C0.0°C-0.1°C70.0%1020.4hPa0.0mm3.2km/hSSW7.9km/h0.0W/m²0W/m²0uvi
20.01.2022 22:45-0.1°C-0.1°C-0.2°C70.9%1020.4hPa0.0mm3.2km/hSW4.7km/h0.0W/m²0W/m²0uvi
20.01.2022 22:50-0.2°C-0.2°C-0.3°C70.2%1020.4hPa0.0mm3.2km/hSSW7.9km/h0.0W/m²0W/m²0uvi
20.01.2022 22:55-0.2°C-0.2°C-0.2°C71.0%1020.4hPa0.0mm3.2km/hW6.5km/h0.0W/m²0W/m²0uvi
20.01.2022 23:00-0.3°C-0.2°C-0.3°C71.0%1020.4hPa0.0mm3.2km/hW9.7km/h0.0W/m²0W/m²0uvi
20.01.2022 23:05-0.2°C-0.2°C-0.3°C70.0%1020.5hPa0.0mm3.2km/hW6.5km/h0.0W/m²0W/m²0uvi
20.01.2022 23:10-0.2°C-0.2°C-0.3°C70.0%1020.6hPa0.0mm3.2km/hWSW6.5km/h0.0W/m²0W/m²0uvi
20.01.2022 23:15-0.3°C-0.3°C-0.4°C70.0%1020.6hPa0.0mm3.2km/hSW4.7km/h0.0W/m²0W/m²0uvi
20.01.2022 23:20-0.4°C-0.3°C-0.4°C68.4%1020.7hPa0.0mm3.0km/hSW6.5km/h0.0W/m²0W/m²0uvi
20.01.2022 23:25-0.2°C-0.1°C-0.3°C67.6%1020.7hPa0.0mm1.4km/hWSW7.9km/h0.0W/m²0W/m²0uvi
20.01.2022 23:30-0.0°C0.1°C-0.1°C66.6%1020.6hPa0.0mm2.5km/hSSW11.2km/h0.0W/m²0W/m²0uvi
20.01.2022 23:35-0.0°C0.1°C-0.1°C66.8%1020.6hPa0.0mm4.4km/hW9.7km/h0.0W/m²0W/m²0uvi
20.01.2022 23:400.1°C0.1°C0.0°C65.8%1020.5hPa0.0mm3.6km/hSSW7.9km/h0.0W/m²0W/m²0uvi
20.01.2022 23:45-0.0°C0.1°C-0.1°C65.4%1020.4hPa0.0mm3.2km/hSSW7.9km/h0.0W/m²0W/m²0uvi
20.01.2022 23:50-0.1°C-0.1°C-0.1°C66.3%1020.5hPa0.0mm3.5km/hWSW6.5km/h0.0W/m²0W/m²0uvi
20.01.2022 23:550.0°C0.1°C-0.1°C65.8%1020.5hPa0.0mm3.2km/hW6.5km/h0.0W/m²0W/m²0uvi
21.01.2022 00:00-0.2°C-0.1°C-0.3°C67.0%1020.4hPa0.0mm3.2km/hW11.2km/h0.0W/m²0W/m²0uvi
21.01.2022 00:05-0.3°C-0.3°C-0.4°C67.9%1020.5hPa0.0mm3.6km/hW9.7km/h0.0W/m²0W/m²0uvi
21.01.2022 00:10-0.1°C0.0°C-0.3°C66.2%1020.6hPa0.0mm4.7km/hW9.7km/h0.0W/m²0W/m²0uvi
21.01.2022 00:15-0.2°C-0.1°C-0.3°C66.5%1020.6hPa0.0mm4.7km/hW6.5km/h0.0W/m²0W/m²0uvi
21.01.2022 00:20-0.6°C-0.3°C-0.9°C68.4%1020.7hPa0.0mm3.5km/hSSW13.0km/h0.0W/m²0W/m²0uvi
21.01.2022 00:25-0.9°C-0.8°C-0.9°C69.6%1020.6hPa0.0mm4.7km/hWNW6.5km/h0.0W/m²0W/m²0uvi
21.01.2022 00:30-0.9°C-0.9°C-0.9°C69.2%1020.7hPa0.0mm4.4km/hW11.2km/h0.0W/m²0W/m²0uvi
21.01.2022 00:35-0.9°C-0.8°C-0.9°C69.8%1020.7hPa0.0mm4.3km/hW9.7km/h0.0W/m²0W/m²0uvi
21.01.2022 00:40-1.1°C-0.9°C-1.2°C70.0%1020.8hPa0.0mm3.1km/hW4.7km/h0.0W/m²0W/m²0uvi
21.01.2022 00:45-1.2°C-1.2°C-1.3°C70.0%1020.7hPa0.0mm1.4km/hW6.5km/h0.0W/m²0W/m²0uvi
21.01.2022 00:50-1.3°C-1.2°C-1.3°C70.2%1020.7hPa0.0mm3.2km/hW13.0km/h0.0W/m²0W/m²0uvi
21.01.2022 00:55-1.3°C-1.3°C-1.3°C70.5%1020.7hPa0.0mm4.0km/hSSW7.9km/h0.0W/m²0W/m²0uvi
21.01.2022 01:00-1.4°C-1.3°C-1.4°C71.0%1020.8hPa0.0mm3.3km/hSSW7.9km/h0.0W/m²0W/m²0uvi
21.01.2022 01:05-1.4°C-1.3°C-1.4°C70.9%1020.7hPa0.0mm2.8km/hSW13.0km/h0.0W/m²0W/m²0uvi
21.01.2022 01:10-1.3°C-1.3°C-1.3°C69.4%1020.6hPa0.0mm4.1km/hW11.2km/h0.0W/m²0W/m²0uvi
21.01.2022 01:15-1.3°C-1.2°C-1.3°C69.6%1020.7hPa0.0mm4.7km/hW4.7km/h0.0W/m²0W/m²0uvi
21.01.2022 01:20-1.4°C-1.3°C-1.4°C70.1%1020.8hPa0.0mm2.5km/hS6.5km/h0.0W/m²0W/m²0uvi
21.01.2022 01:25-1.4°C-1.3°C-1.4°C70.0%1020.7hPa0.0mm3.2km/hW4.7km/h0.0W/m²0W/m²0uvi
21.01.2022 01:30-1.3°C-1.3°C-1.4°C69.1%1020.7hPa0.0mm3.2km/hNNW9.7km/h0.0W/m²0W/m²0uvi
21.01.2022 01:35-1.3°C-1.2°C-1.3°C67.4%1020.6hPa0.0mm3.2km/hSSW7.9km/h0.0W/m²0W/m²0uvi
21.01.2022 01:40-1.2°C-1.2°C-1.2°C67.7%1020.6hPa0.0mm3.2km/hW4.7km/h0.0W/m²0W/m²0uvi
21.01.2022 01:45-1.3°C-1.2°C-1.4°C68.0%1020.7hPa0.0mm2.1km/hSE4.7km/h0.0W/m²0W/m²0uvi
21.01.2022 01:50-1.4°C-1.3°C-1.4°C68.0%1020.6hPa0.0mm1.4km/hW9.7km/h0.0W/m²0W/m²0uvi
21.01.2022 01:55-1.3°C-1.2°C-1.3°C67.4%1020.6hPa0.0mm2.9km/hW6.5km/h0.0W/m²0W/m²0uvi
21.01.2022 02:00-1.3°C-1.2°C-1.4°C68.4%1020.5hPa0.0mm3.2km/hW6.5km/h0.0W/m²0W/m²0uvi
21.01.2022 02:05-1.2°C-0.8°C-1.5°C66.3%1020.5hPa0.0mm3.8km/hW13.0km/h0.0W/m²0W/m²0uvi
21.01.2022 02:10-0.9°C-0.8°C-0.9°C65.4%1020.4hPa0.0mm4.7km/hWNW9.7km/h0.0W/m²0W/m²0uvi
21.01.2022 02:15-1.1°C-1.0°C-1.2°C66.1%1020.5hPa0.0mm4.7km/hSSW13.0km/h0.0W/m²0W/m²0uvi
21.01.2022 02:20-1.2°C-1.2°C-1.2°C67.0%1020.5hPa0.0mm4.7km/hSSW9.7km/h0.0W/m²0W/m²0uvi
21.01.2022 02:25-1.4°C-1.3°C-1.4°C67.8%1020.4hPa0.0mm4.1km/hWNW7.9km/h0.0W/m²0W/m²0uvi
21.01.2022 02:30-1.3°C-1.1°C-1.4°C66.6%1020.3hPa0.0mm3.8km/hW16.2km/h0.0W/m²0W/m²0uvi
21.01.2022 02:35-0.9°C-0.7°C-1.1°C64.7%1020.4hPa0.0mm4.7km/hW11.2km/h0.0W/m²0W/m²0uvi
21.01.2022 02:40-0.7°C-0.6°C-0.7°C63.8%1020.4hPa0.0mm4.7km/hW14.4km/h0.0W/m²0W/m²0uvi
21.01.2022 02:45-0.8°C-0.7°C-0.8°C64.0%1020.4hPa0.0mm4.2km/hW4.7km/h0.0W/m²0W/m²0uvi
21.01.2022 02:50-0.8°C-0.8°C-0.9°C63.6%1020.4hPa0.0mm2.5km/hNNE9.7km/h0.0W/m²0W/m²0uvi
21.01.2022 02:55-0.7°C-0.7°C-0.8°C63.2%1020.3hPa0.0mm2.1km/hW4.7km/h0.0W/m²0W/m²0uvi
21.01.2022 03:00-0.8°C